To NAV CANADA Home Page Login to a new session Search on AWWS site Feedback and Comments Disclaimer Vers la page française équivalente Tips FAQ What's new on the site To the Forecasts and Observations / NOTAM section To "File a Flight Plan" website Publications and other links Update of the User's profile FIC Telephone Numbers My Weather Data Folder Route Weather Data Regional Weather Data Local Weather Data To the Forecasts and Observations / NOTAM section
Request Generated 04/25/2014 at 06:01:23 UTC . Weather information available at that time is displayed.

METAR/TAF

EARLTON/EARLTON (TIMISKAMING REGIONAL)/ON    (show WxCam)

METAR CYXR 250600Z AUTO 10007KT 080V160 9SM OVC130 02/M07 A3007 RMK
SLP195=
METAR CYXR 250500Z AUTO 06008KT 9SM OVC150 01/M05 A3007 RMK SLP194=
METAR CYXR 250400Z AUTO 01003KT 330V050 9SM BKN150 01/M07 A3008 RMK
SLP199=

*** REMARK        : Forecast period has ended; this was the last TAF issued
*** REMARQUE : La période de prévision est échue; ceci était le dernier TAF qui a été émis
TAF CYXR 241738Z 2418/2424 VRB03KT P6SM SKC
BECMG 2418/2420 01010KT
RMK FCST BASED ON AUTO OBS. NXT FCST WILL BE ISSUED AT 251145Z=
Your time UTC time
Weather data provided by Environment Canada and NAV CANADA